Time;durP1;ratioP1;P1;durP2;ratioP2;P2;SDS_P1;SDS_P2;PMS_P1;PMS_P2;Temp;Humidity;BMP_temperature;BMP_pressure;BME280_temperature;BME280_humidity;BME280_pressure;Samples;Min_cycle;Max_cycle;Signal;HPM_P1;HPM_P2
2022/09/06 00:02:19;;;;;;;6.72;1.20;;;23.60;39.20;;;;;;5018543;28;20056;-58
2022/09/06 00:04:47;;;;;;;2.05;1.08;;;23.60;39.20;;;;;;5019899;28;20068;-57
2022/09/06 00:07:14;;;;;;;1.15;1.00;;;23.70;39.20;;;;;;5022510;28;20061;-58
2022/09/06 00:09:41;;;;;;;1.67;1.00;;;23.60;39.20;;;;;;5013251;28;20053;-58
2022/09/06 00:12:08;;;;;;;1.67;1.20;;;23.60;39.20;;;;;;5016361;28;20057;-57
2022/09/06 00:14:37;;;;;;;3.88;1.15;;;23.60;39.20;;;;;;5017682;28;20054;-55
2022/09/06 00:17:04;;;;;;;2.95;1.40;;;23.60;39.30;;;;;;5019678;28;20053;-58
2022/09/06 00:19:31;;;;;;;2.17;1.10;;;23.60;39.30;;;;;;5020692;28;20061;-54
2022/09/06 00:21:58;;;;;;;1.80;1.20;;;23.60;39.40;;;;;;5017765;28;20060;-56
2022/09/06 00:24:26;;;;;;;1.67;1.25;;;23.60;39.40;;;;;;5016797;28;20065;-56
2022/09/06 00:26:53;;;;;;;1.63;1.10;;;23.60;39.40;;;;;;5015594;28;20053;-57
2022/09/06 00:29:20;;;;;;;1.70;0.95;;;23.60;39.50;;;;;;5016831;28;20468;-55
2022/09/06 00:31:48;;;;;;;1.60;1.23;;;23.60;39.70;;;;;;5014576;28;20413;-57
2022/09/06 00:34:16;;;;;;;3.38;1.50;;;23.60;39.90;;;;;;5017626;28;20057;-58
2022/09/06 00:36:43;;;;;;;1.52;1.20;;;23.60;40.10;;;;;;5016551;28;20060;-58
2022/09/06 00:39:10;;;;;;;2.28;1.40;;;23.60;40.10;;;;;;5017813;28;20493;-58
2022/09/06 00:41:38;;;;;;;2.85;1.02;;;23.60;39.90;;;;;;5014920;28;20057;-58
2022/09/06 00:44:05;;;;;;;1.38;1.27;;;23.60;39.80;;;;;;5021305;28;20049;-60
2022/09/06 00:46:33;;;;;;;1.77;1.00;;;23.60;39.60;;;;;;5017706;28;20053;-58
2022/09/06 00:49:05;;;;;;;2.47;1.38;;;23.60;39.60;;;;;;5018755;28;20050;-58
2022/09/06 00:51:33;;;;;;;2.22;1.67;;;23.60;39.80;;;;;;5016779;28;20417;-58
2022/09/06 00:54:03;;;;;;;2.50;1.40;;;23.60;39.80;;;;;;5021729;28;20053;-57
2022/09/06 00:56:32;;;;;;;2.10;1.23;;;23.60;40.40;;;;;;5026648;28;20049;-57
2022/09/06 00:59:00;;;;;;;1.30;1.15;;;23.60;40.30;;;;;;5024176;28;20054;-56
2022/09/06 01:01:28;;;;;;;4.65;1.42;;;23.70;40.40;;;;;;5021148;28;20409;-58
2022/09/06 01:03:55;;;;;;;2.53;1.27;;;23.70;40.40;;;;;;5027169;28;20045;-57
2022/09/06 01:06:30;;;;;;;2.17;1.40;;;23.70;40.50;;;;;;5029547;28;20057;-57
2022/09/06 01:09:05;;;;;;;6.18;1.67;;;23.70;41.20;;;;;;5024163;28;20514;-57
2022/09/06 01:11:47;;;;;;;5.18;1.67;;;23.80;41.20;;;;;;5019785;28;20433;-61
2022/09/06 01:14:27;;;;;;;5.80;1.67;;;23.80;41.30;;;;;;5025204;28;20057;-61
2022/09/06 01:17:01;;;;;;;4.00;1.52;;;23.90;41.50;;;;;;5022965;28;20050;-59
2022/09/06 01:19:56;;;;;;;1.75;1.30;;;23.90;41.40;;;;;;5024969;28;20417;-60
2022/09/06 01:22:46;;;;;;;2.28;1.60;;;24.00;41.50;;;;;;5025377;28;20057;-56
2022/09/06 01:25:32;;;;;;;3.95;1.40;;;24.00;41.50;;;;;;5021043;28;20075;-59
2022/09/06 01:28:23;;;;;;;4.22;2.03;;;24.00;41.60;;;;;;5020872;28;20057;-61
2022/09/06 01:30:57;;;;;;;2.15;1.70;;;24.00;41.70;;;;;;5018686;28;20060;-57
2022/09/06 01:33:32;;;;;;;3.78;1.88;;;24.00;41.80;;;;;;5019223;28;20061;-61
2022/09/06 01:36:02;;;;;;;2.42;1.42;;;24.00;42.00;;;;;;5023319;28;20413;-61
2022/09/06 01:38:30;;;;;;;4.30;1.60;;;24.00;42.20;;;;;;5008526;28;20074;-60
2022/09/06 01:40:57;;;;;;;4.70;1.80;;;24.00;42.40;;;;;;5016710;28;20045;-59
2022/09/06 01:43:28;;;;;;;1.73;1.30;;;23.90;42.80;;;;;;5024468;28;20064;-60
2022/09/06 01:46:01;;;;;;;4.78;1.90;;;23.80;42.90;;;;;;5021259;28;20517;-61
2022/09/06 01:48:39;;;;;;;3.60;1.60;;;23.80;43.20;;;;;;5021108;28;20054;-61
2022/09/06 01:51:14;;;;;;;6.55;1.80;;;23.80;43.60;;;;;;5017215;28;20060;-61
2022/09/06 01:53:56;;;;;;;5.80;1.90;;;23.70;44.30;;;;;;5021248;28;20058;-59
2022/09/06 01:56:37;;;;;;;3.42;1.85;;;23.70;44.30;;;;;;5019552;28;20046;-61
2022/09/06 01:59:30;;;;;;;2.10;1.60;;;23.70;44.20;;;;;;5019671;28;20053;-61
2022/09/06 02:02:04;;;;;;;4.72;2.33;;;23.70;44.30;;;;;;5017325;28;20070;-61
2022/09/06 02:04:36;;;;;;;;;;;23.60;44.60;;;;;;5022368;28;20510;-59
2022/09/06 02:07:10;;;;;;;3.03;1.70;;;23.70;44.20;;;;;;5021814;28;19921;-61
2022/09/06 02:09:41;;;;;;;2.30;1.67;;;23.70;44.70;;;;;;5017726;28;20058;-60
2022/09/06 02:12:12;;;;;;;2.88;1.50;;;23.60;44.60;;;;;;5020545;28;20076;-58
2022/09/06 02:14:45;;;;;;;6.70;1.70;;;23.60;44.80;;;;;;5022720;28;20049;-61
2022/09/06 02:17:16;;;;;;;6.00;1.70;;;23.60;45.50;;;;;;5022288;28;20490;-61
2022/09/06 02:19:49;;;;;;;4.07;1.50;;;23.60;45.40;;;;;;5020299;28;20441;-62
2022/09/06 02:22:19;;;;;;;2.33;1.67;;;23.60;45.30;;;;;;5015549;28;20072;-61
2022/09/06 02:24:50;;;;;;;8.45;1.60;;;23.60;45.20;;;;;;5022026;28;20061;-62
2022/09/06 02:27:17;;;;;;;3.05;1.70;;;23.60;45.10;;;;;;5023472;28;20053;-61
2022/09/06 02:29:46;;;;;;;3.70;1.42;;;23.60;45.10;;;;;;5019103;28;20061;-57
2022/09/06 02:32:19;;;;;;;2.28;1.50;;;23.60;45.30;;;;;;5018971;28;20060;-51
2022/09/06 02:34:46;;;;;;;2.03;1.42;;;23.60;45.50;;;;;;5018305;28;20054;-50
2022/09/06 02:37:15;;;;;;;2.45;1.63;;;23.70;45.50;;;;;;5023429;28;20064;-51
2022/09/06 02:39:42;;;;;;;3.60;1.65;;;23.60;45.50;;;;;;5016572;28;20061;-52
2022/09/06 02:42:12;;;;;;;2.42;1.50;;;23.60;46.00;;;;;;5019149;28;20065;-48
2022/09/06 02:44:40;;;;;;;7.07;2.10;;;23.70;45.70;;;;;;5019841;28;20060;-48
2022/09/06 02:47:08;;;;;;;2.95;1.40;;;23.60;45.70;;;;;;5021443;28;20057;-49
2022/09/06 02:49:36;;;;;;;4.93;1.85;;;23.60;45.70;;;;;;5017867;28;20054;-55
2022/09/06 02:52:03;;;;;;;3.88;1.98;;;23.60;45.70;;;;;;5019458;28;20535;-48
2022/09/06 02:54:31;;;;;;;3.25;1.50;;;23.60;46.30;;;;;;5016599;28;20053;-49
2022/09/06 02:56:58;;;;;;;1.83;1.48;;;23.60;45.90;;;;;;5023252;28;20053;-49
2022/09/06 02:59:26;;;;;;;3.33;1.70;;;23.60;46.00;;;;;;5023390;28;20405;-56
2022/09/06 03:01:53;;;;;;;3.72;1.50;;;23.50;46.00;;;;;;5017598;28;20054;-49
2022/09/06 03:04:22;;;;;;;2.35;1.55;;;23.60;46.10;;;;;;5019601;28;20509;-51
2022/09/06 03:06:49;;;;;;;1.70;1.40;;;23.50;46.10;;;;;;5023218;28;20517;-47
2022/09/06 03:09:16;;;;;;;3.30;1.58;;;23.50;46.70;;;;;;5021585;28;20520;-47
2022/09/06 03:11:43;;;;;;;2.88;1.67;;;23.50;46.20;;;;;;5012683;28;20049;-50
2022/09/06 03:14:10;;;;;;;2.20;1.50;;;23.50;46.30;;;;;;5020273;28;20065;-49
2022/09/06 03:16:38;;;;;;;5.40;1.90;;;23.50;46.40;;;;;;5018250;28;20057;-50
2022/09/06 03:19:05;;;;;;;1.98;1.80;;;23.50;46.30;;;;;;5018942;28;20497;-50
2022/09/06 03:21:33;;;;;;;3.50;1.90;;;23.50;46.40;;;;;;5015198;28;20057;-55
2022/09/06 03:24:01;;;;;;;3.38;1.80;;;23.50;46.50;;;;;;5017585;28;20053;-49
2022/09/06 03:26:29;;;;;;;3.80;1.45;;;23.40;46.50;;;;;;5020498;28;20417;-51
2022/09/06 03:28:56;;;;;;;3.58;1.50;;;23.40;46.50;;;;;;5021120;28;20425;-51
2022/09/06 03:31:23;;;;;;;9.43;5.32;;;23.40;46.70;;;;;;5014299;28;20053;-49
2022/09/06 03:33:51;;;;;;;7.53;4.20;;;23.40;46.70;;;;;;5019542;28;20053;-47
2022/09/06 03:36:18;;;;;;;5.47;3.00;;;23.40;46.70;;;;;;5012421;28;20050;-49
2022/09/06 03:38:47;;;;;;;4.75;2.42;;;23.40;46.70;;;;;;5022137;28;20422;-52
2022/09/06 03:41:14;;;;;;;3.17;1.77;;;23.30;47.20;;;;;;5014279;28;20057;-49
2022/09/06 03:43:41;;;;;;;2.67;1.70;;;23.30;46.70;;;;;;5022783;28;20060;-48
2022/09/06 03:46:08;;;;;;;3.20;2.13;;;23.30;46.70;;;;;;5022520;28;20041;-48
2022/09/06 03:48:36;;;;;;;2.45;1.80;;;23.20;46.70;;;;;;5011585;28;20069;-49
2022/09/06 03:51:03;;;;;;;4.40;2.03;;;23.30;46.80;;;;;;5015145;28;20058;-48
2022/09/06 03:53:30;;;;;;;2.83;1.58;;;23.20;46.90;;;;;;5019288;28;20056;-49
2022/09/06 03:56:00;;;;;;;2.80;1.80;;;23.20;46.90;;;;;;5018972;28;20114;-57
2022/09/06 03:58:31;;;;;;;2.75;1.75;;;23.20;46.90;;;;;;5019812;28;20057;-49
2022/09/06 04:01:02;;;;;;;3.70;1.90;;;23.10;46.90;;;;;;5021010;28;20536;-49
2022/09/06 04:03:30;;;;;;;1.90;1.40;;;23.10;46.90;;;;;;5022428;28;20053;-53
2022/09/06 04:05:57;;;;;;;1.83;1.63;;;23.00;46.80;;;;;;5022004;28;20076;-50
2022/09/06 04:08:25;;;;;;;4.47;1.70;;;23.00;47.00;;;;;;5021993;28;20076;-51
2022/09/06 04:10:53;;;;;;;3.88;1.83;;;23.00;47.10;;;;;;5018552;28;20523;-48
2022/09/06 04:13:23;;;;;;;2.97;1.70;;;22.90;47.10;;;;;;5021998;28;20061;-51
2022/09/06 04:15:51;;;;;;;3.15;2.15;;;22.90;47.20;;;;;;5017530;28;20566;-50
2022/09/06 04:18:19;;;;;;;6.63;1.67;;;22.80;47.60;;;;;;5013876;28;20068;-56
2022/09/06 04:20:48;;;;;;;3.70;2.03;;;22.80;47.80;;;;;;5017712;28;20501;-50
2022/09/06 04:23:16;;;;;;;4.03;2.13;;;22.80;47.40;;;;;;5017618;28;20064;-47
2022/09/06 04:25:46;;;;;;;2.30;1.65;;;22.80;47.50;;;;;;5016025;28;20048;-50
2022/09/06 04:28:14;;;;;;;3.92;1.80;;;22.70;47.40;;;;;;5014936;28;20412;-54
2022/09/06 04:30:42;;;;;;;5.15;1.92;;;22.70;47.40;;;;;;5012804;28;20053;-52
2022/09/06 04:33:10;;;;;;;3.70;2.38;;;22.70;47.60;;;;;;5017703;28;20064;-48
2022/09/06 04:35:37;;;;;;;7.13;4.85;;;22.60;47.60;;;;;;5016989;28;20425;-50
2022/09/06 04:38:05;;;;;;;7.47;4.57;;;22.60;47.70;;;;;;5016361;28;20053;-50
2022/09/06 04:40:32;;;;;;;5.43;3.35;;;22.60;47.80;;;;;;5014763;28;20049;-49
2022/09/06 04:43:00;;;;;;;4.05;2.30;;;22.60;47.80;;;;;;5013681;28;20053;-47
2022/09/06 04:45:27;;;;;;;4.00;1.83;;;22.50;47.80;;;;;;5013035;28;20064;-49
2022/09/06 04:47:55;;;;;;;3.38;1.88;;;22.50;47.80;;;;;;5008525;28;20057;-50
2022/09/06 04:50:23;;;;;;;2.50;1.90;;;22.50;48.00;;;;;;5008594;28;20575;-49
2022/09/06 04:52:50;;;;;;;5.85;1.90;;;22.50;48.00;;;;;;5008180;28;20058;-52
2022/09/06 04:55:17;;;;;;;2.55;1.80;;;22.40;47.90;;;;;;4998486;28;20057;-51
2022/09/06 04:57:44;;;;;;;3.20;1.70;;;22.40;48.00;;;;;;5011827;28;20053;-50
2022/09/06 05:00:12;;;;;;;4.03;1.73;;;22.40;48.10;;;;;;5010739;28;20068;-47
2022/09/06 05:02:39;;;;;;;1.92;1.50;;;22.30;48.10;;;;;;5006377;28;20506;-50
2022/09/06 05:05:09;;;;;;;3.47;1.63;;;22.30;48.20;;;;;;5011224;28;20417;-52
2022/09/06 05:07:36;;;;;;;3.30;1.98;;;22.30;48.30;;;;;;5003190;28;20050;-54
2022/09/06 05:10:04;;;;;;;4.65;1.60;;;22.20;48.20;;;;;;4999362;28;20054;-49
2022/09/06 05:12:31;;;;;;;2.65;1.60;;;22.20;48.30;;;;;;4998400;28;20046;-51
2022/09/06 05:14:58;;;;;;;2.45;1.75;;;22.20;48.50;;;;;;5005537;28;20409;-57
2022/09/06 05:17:25;;;;;;;3.38;1.77;;;22.20;48.50;;;;;;5013660;28;20387;-57
2022/09/06 05:19:52;;;;;;;6.07;2.03;;;22.10;48.60;;;;;;5006863;28;20690;-56
2022/09/06 05:22:21;;;;;;;3.22;1.83;;;22.10;48.70;;;;;;4996285;28;20069;-55
2022/09/06 05:24:48;;;;;;;2.35;1.80;;;22.10;48.80;;;;;;4994949;28;20056;-49
2022/09/06 05:27:15;;;;;;;4.85;1.48;;;22.10;48.80;;;;;;5014283;28;20046;-53
2022/09/06 05:29:42;;;;;;;2.83;1.80;;;22.00;48.80;;;;;;5015779;28;20501;-48
2022/09/06 05:32:10;;;;;;;8.65;2.10;;;22.00;48.90;;;;;;5007065;28;20054;-48
2022/09/06 05:34:37;;;;;;;3.47;2.00;;;22.00;49.10;;;;;;5000010;28;20568;-54
2022/09/06 05:37:04;;;;;;;6.68;2.10;;;21.90;49.10;;;;;;5003333;28;20120;-52
2022/09/06 05:39:33;;;;;;;4.75;2.15;;;22.00;49.10;;;;;;5012152;28;20498;-48
2022/09/06 05:42:05;;;;;;;3.00;1.90;;;21.90;49.10;;;;;;5020749;28;20080;-48
2022/09/06 05:44:32;;;;;;;4.20;1.70;;;21.90;49.20;;;;;;5021177;28;20053;-55
2022/09/06 05:47:00;;;;;;;3.55;2.20;;;21.90;49.10;;;;;;5019918;28;20065;-56
2022/09/06 05:49:29;;;;;;;2.92;1.90;;;21.90;49.30;;;;;;5021385;28;20057;-52
2022/09/06 05:51:57;;;;;;;4.80;1.95;;;21.90;49.30;;;;;;5004487;28;20387;-52
2022/09/06 05:54:25;;;;;;;8.50;2.05;;;21.90;49.40;;;;;;5018178;28;20069;-54
2022/09/06 05:56:53;;;;;;;2.83;1.90;;;21.90;49.50;;;;;;5008679;28;20489;-54
2022/09/06 05:59:21;;;;;;;2.25;1.75;;;21.90;49.50;;;;;;5003016;28;20057;-47
2022/09/06 06:01:49;;;;;;;3.55;1.75;;;21.90;49.60;;;;;;4997911;28;20057;-50
2022/09/06 06:04:17;;;;;;;4.38;1.67;;;21.90;49.70;;;;;;5000253;28;20961;-49
2022/09/06 06:06:45;;;;;;;3.13;1.70;;;21.90;49.60;;;;;;5007866;28;20054;-49
2022/09/06 06:09:13;;;;;;;5.25;1.95;;;22.00;49.60;;;;;;5023663;28;20057;-56
2022/09/06 06:11:40;;;;;;;4.45;1.58;;;22.00;49.70;;;;;;5003230;28;20064;-57
2022/09/06 06:14:09;;;;;;;3.85;1.90;;;22.00;49.80;;;;;;5011392;28;20054;-47
2022/09/06 06:16:37;;;;;;;3.13;2.00;;;22.00;49.80;;;;;;5009533;28;20430;-49
2022/09/06 06:19:04;;;;;;;1.75;1.48;;;22.10;49.80;;;;;;5015454;28;20084;-47
2022/09/06 06:21:33;;;;;;;2.55;1.55;;;22.10;49.90;;;;;;5019940;28;20058;-47
2022/09/06 06:24:02;;;;;;;3.15;1.65;;;22.10;49.80;;;;;;5014192;28;20060;-47
2022/09/06 06:26:31;;;;;;;2.55;1.70;;;22.10;49.70;;;;;;5017952;28;20057;-56
2022/09/06 06:29:00;;;;;;;3.38;1.63;;;22.20;49.70;;;;;;5014501;28;20069;-47
2022/09/06 06:31:30;;;;;;;5.13;1.88;;;22.20;49.70;;;;;;5011925;28;20054;-52
2022/09/06 06:33:58;;;;;;;3.03;1.60;;;22.20;49.70;;;;;;5020308;28;20063;-46
2022/09/06 06:36:29;;;;;;;3.63;1.88;;;22.30;49.70;;;;;;5017477;28;20049;-49
2022/09/06 06:38:57;;;;;;;3.15;1.40;;;22.30;49.60;;;;;;5012469;28;20054;-57
2022/09/06 06:41:26;;;;;;;2.65;1.65;;;22.30;49.60;;;;;;5002094;28;20058;-52
2022/09/06 06:43:54;;;;;;;2.28;1.60;;;22.40;49.60;;;;;;5020910;28;20413;-53
2022/09/06 06:46:23;;;;;;;3.85;1.52;;;22.40;49.50;;;;;;5011685;28;20049;-50
2022/09/06 06:48:53;;;;;;;3.88;1.48;;;22.40;49.40;;;;;;5020622;28;20493;-49
2022/09/06 06:51:21;;;;;;;3.53;2.00;;;22.50;49.40;;;;;;5018385;28;20069;-49
2022/09/06 06:53:49;;;;;;;4.20;1.58;;;22.50;49.40;;;;;;5014372;28;20053;-52
2022/09/06 06:56:18;;;;;;;1.58;1.45;;;22.60;49.30;;;;;;5005063;28;20328;-48
2022/09/06 06:58:47;;;;;;;2.08;1.45;;;22.60;49.30;;;;;;4995745;28;20065;-53
2022/09/06 07:01:14;;;;;;;3.10;1.30;;;22.70;49.20;;;;;;5007006;28;20049;-55
2022/09/06 07:03:41;;;;;;;1.38;1.20;;;22.70;49.20;;;;;;5007561;28;20050;-47
2022/09/06 07:06:10;;;;;;;2.63;1.52;;;22.70;49.20;;;;;;5022758;28;20516;-47
2022/09/06 07:08:37;;;;;;;1.55;1.30;;;22.80;49.20;;;;;;5021060;28;20045;-54
2022/09/06 07:11:06;;;;;;;1.52;1.38;;;22.80;49.10;;;;;;5018824;28;20057;-54
2022/09/06 07:13:33;;;;;;;3.97;1.58;;;22.80;49.10;;;;;;5012695;28;20501;-52
2022/09/06 07:16:08;;;;;;;3.33;1.50;;;22.90;49.10;;;;;;5020526;28;20069;-52
2022/09/06 07:18:36;;;;;;;3.47;1.33;;;23.00;49.10;;;;;;4999535;28;20049;-50
2022/09/06 07:21:03;;;;;;;7.10;3.97;;;23.00;49.00;;;;;;5007225;28;20403;-50
2022/09/06 07:23:32;;;;;;;6.47;2.47;;;23.10;49.00;;;;;;5000626;28;20058;-53
2022/09/06 07:25:59;;;;;;;6.22;2.28;;;23.10;49.00;;;;;;5005220;28;20064;-57
2022/09/06 07:28:26;;;;;;;34.00;7.32;;;23.20;48.90;;;;;;5004956;28;20056;-50
2022/09/06 07:30:55;;;;;;;5.63;2.10;;;23.30;48.90;;;;;;5015138;28;20065;-56
2022/09/06 07:33:22;;;;;;;2.60;1.60;;;23.30;48.70;;;;;;5020315;28;20053;-48
2022/09/06 07:35:57;;;;;;;2.53;1.20;;;23.40;48.60;;;;;;5022572;28;20513;-46
2022/09/06 07:38:24;;;;;;;1.40;1.13;;;23.50;48.50;;;;;;5014234;28;20053;-54
2022/09/06 07:40:57;;;;;;;6.32;1.30;;;23.50;48.50;;;;;;4995057;28;20060;-54
2022/09/06 07:43:24;;;;;;;1.85;1.05;;;23.50;48.30;;;;;;5014541;28;20073;-56
2022/09/06 07:45:59;;;;;;;1.98;1.10;;;23.60;48.40;;;;;;5021125;28;20053;-51
2022/09/06 07:48:29;;;;;;;3.30;1.30;;;23.70;48.30;;;;;;5016403;28;20053;-48
2022/09/06 07:51:02;;;;;;;2.13;1.20;;;23.70;48.20;;;;;;5016616;28;20049;-47
2022/09/06 07:53:29;;;;;;;1.17;0.90;;;23.80;48.10;;;;;;5018014;28;20050;-48
2022/09/06 07:55:58;;;;;;;1.42;1.17;;;23.80;47.90;;;;;;5010132;28;20053;-51
2022/09/06 07:58:26;;;;;;;2.72;1.00;;;23.90;47.90;;;;;;5009347;28;20056;-51
2022/09/06 08:00:53;;;;;;;1.95;1.00;;;24.00;47.60;;;;;;5004723;28;20053;-49
2022/09/06 08:03:20;;;;;;;4.00;1.20;;;24.00;47.40;;;;;;5012780;28;20065;-51
2022/09/06 08:05:50;;;;;;;1.35;0.95;;;24.10;47.20;;;;;;5009529;28;20116;-54
2022/09/06 08:08:17;;;;;;;1.38;1.25;;;24.10;46.80;;;;;;5009293;28;20053;-53
2022/09/06 08:10:49;;;;;;;0.93;0.80;;;24.20;47.20;;;;;;5009463;28;20057;-50
2022/09/06 08:13:17;;;;;;;1.63;0.80;;;24.20;46.60;;;;;;5021624;28;20072;-49
2022/09/06 08:15:45;;;;;;;17.00;1.90;;;24.30;46.50;;;;;;5012839;28;20049;-51
2022/09/06 08:18:12;;;;;;;3.88;1.00;;;24.40;46.40;;;;;;5019636;28;20540;-53
2022/09/06 08:20:39;;;;;;;1.67;0.88;;;24.40;46.40;;;;;;5007727;28;20069;-50
2022/09/06 08:23:09;;;;;;;1.42;0.73;;;24.50;46.10;;;;;;5013204;28;20057;-54
2022/09/06 08:25:36;;;;;;;2.22;1.05;;;24.50;46.10;;;;;;5011148;28;20056;-48
2022/09/06 08:28:04;;;;;;;3.35;0.88;;;24.60;46.10;;;;;;5011083;28;20061;-48
2022/09/06 08:30:34;;;;;;;1.83;0.90;;;24.60;46.00;;;;;;5009394;28;20058;-50
2022/09/06 08:33:02;;;;;;;3.83;0.90;;;24.70;46.10;;;;;;5015968;28;20421;-50
2022/09/06 08:35:29;;;;;;;1.52;0.98;;;24.70;46.00;;;;;;5008512;28;20069;-48
2022/09/06 08:37:57;;;;;;;0.80;0.80;;;24.80;45.90;;;;;;5004937;28;20545;-50
2022/09/06 08:40:25;;;;;;;1.35;0.80;;;24.80;46.00;;;;;;5012910;28;20054;-47
2022/09/06 08:42:52;;;;;;;1.45;0.98;;;24.90;45.90;;;;;;5016958;28;20052;-57
2022/09/06 08:45:20;;;;;;;1.33;0.85;;;24.90;45.70;;;;;;5011460;28;20504;-51
2022/09/06 08:47:51;;;;;;;0.77;0.70;;;25.00;45.70;;;;;;5002840;28;20060;-48
2022/09/06 08:50:19;;;;;;;2.13;0.70;;;25.00;45.20;;;;;;5016471;28;20395;-49
2022/09/06 08:52:57;;;;;;;2.55;0.80;;;25.10;45.10;;;;;;5004188;28;20065;-52
2022/09/06 08:55:35;;;;;;;1.23;0.90;;;25.20;45.10;;;;;;5000806;28;20065;-48
2022/09/06 08:58:36;;;;;;;5.72;1.00;;;25.20;45.20;;;;;;4999929;28;20057;-55
2022/09/06 09:01:06;;;;;;;3.63;1.10;;;25.30;45.40;;;;;;5002286;28;20057;-57
2022/09/06 09:03:37;;;;;;;2.83;0.82;;;25.40;44.80;;;;;;4988760;28;20065;-50
2022/09/06 09:06:06;;;;;;;9.90;1.95;;;25.40;44.60;;;;;;4999214;28;20745;-49
2022/09/06 09:08:41;;;;;;;8.85;3.88;;;25.50;44.40;;;;;;5008032;28;20057;-53
2022/09/06 09:11:15;;;;;;;3.28;1.52;;;25.50;44.30;;;;;;4998726;28;20068;-52
2022/09/06 09:13:52;;;;;;;2.90;1.10;;;25.60;44.30;;;;;;5014305;28;20049;-51
2022/09/06 09:16:19;;;;;;;1.83;0.75;;;25.60;44.20;;;;;;5003479;28;20057;-49
2022/09/06 09:18:51;;;;;;;3.42;0.90;;;25.70;44.00;;;;;;5002679;28;20049;-49
2022/09/06 09:21:21;;;;;;;2.92;1.00;;;25.70;44.10;;;;;;4995587;28;20065;-52
2022/09/06 09:23:53;;;;;;;1.30;0.70;;;25.80;44.00;;;;;;4994163;28;20996;-61
2022/09/06 09:26:24;;;;;;;1.17;0.77;;;25.80;44.00;;;;;;5010226;28;20503;-59
2022/09/06 09:29:08;;;;;;;2.95;0.55;;;25.90;43.90;;;;;;5010471;28;20049;-62
2022/09/06 09:31:38;;;;;;;3.03;0.93;;;26.00;43.70;;;;;;5017568;28;20064;-61
2022/09/06 09:34:11;;;;;;;3.03;0.85;;;26.00;43.70;;;;;;5019747;28;20058;-61
2022/09/06 09:36:38;;;;;;;2.30;1.08;;;26.10;43.50;;;;;;5015521;28;20046;-57
2022/09/06 09:39:09;;;;;;;2.30;0.98;;;26.10;43.60;;;;;;5010190;28;20417;-59
2022/09/06 09:41:39;;;;;;;1.80;0.90;;;26.20;43.30;;;;;;5015919;28;20057;-62
2022/09/06 09:44:10;;;;;;;1.75;0.77;;;26.20;43.20;;;;;;5024115;28;20080;-61
2022/09/06 09:46:40;;;;;;;0.93;0.63;;;26.30;43.30;;;;;;5019904;28;20053;-54
2022/09/06 09:49:11;;;;;;;1.77;0.60;;;26.40;42.80;;;;;;5019164;28;20507;-60
2022/09/06 09:51:40;;;;;;;3.33;0.70;;;26.50;42.80;;;;;;5020013;28;20532;-57
2022/09/06 09:54:10;;;;;;;1.42;0.93;;;26.50;42.90;;;;;;5017864;28;20432;-58
2022/09/06 09:56:43;;;;;;;1.55;0.98;;;26.60;42.60;;;;;;5021557;28;20512;-62
2022/09/06 09:59:21;;;;;;;3.75;0.80;;;26.70;42.60;;;;;;5019498;28;20049;-61
2022/09/06 10:01:49;;;;;;;2.75;0.85;;;26.70;42.20;;;;;;5013852;28;20405;-60
2022/09/06 10:04:28;;;;;;;1.13;0.77;;;26.80;42.40;;;;;;5019990;28;20057;-61
2022/09/06 10:07:07;;;;;;;2.05;0.75;;;26.90;42.30;;;;;;5018624;28;20057;-63
2022/09/06 10:09:38;;;;;;;0.90;0.70;;;27.00;41.70;;;;;;5019427;28;20833;-56
2022/09/06 10:12:06;;;;;;;3.25;1.02;;;27.00;41.60;;;;;;5018312;28;20497;-61
2022/09/06 10:14:41;;;;;;;1.90;0.88;;;27.10;41.20;;;;;;5020983;28;20061;-58
2022/09/06 10:17:08;;;;;;;1.85;0.80;;;27.10;40.80;;;;;;5014704;28;20062;-56
2022/09/06 10:19:43;;;;;;;1.42;0.73;;;27.10;40.50;;;;;;5018418;28;21062;-60
2022/09/06 10:22:28;;;;;;;1.85;0.63;;;27.20;40.40;;;;;;5019551;28;20523;-62
2022/09/06 10:25:35;;;;;;;3.88;0.80;;;27.20;40.30;;;;;;5014745;28;20064;-58
2022/09/06 10:28:28;;;;;;;1.70;0.80;;;27.30;40.30;;;;;;5016075;28;20057;-61
2022/09/06 10:31:36;;;;;;;0.82;0.60;;;27.30;40.40;;;;;;5011183;28;20057;-61
2022/09/06 10:34:46;;;;;;;1.52;0.90;;;27.40;40.40;;;;;;5002696;28;20520;-56
2022/09/06 10:37:25;;;;;;;5.45;0.90;;;27.40;40.20;;;;;;5021358;28;20061;-58
2022/09/06 10:39:56;;;;;;;3.13;0.90;;;27.50;40.10;;;;;;5012518;28;20057;-60
2022/09/06 10:42:32;;;;;;;2.97;1.00;;;27.50;40.10;;;;;;5018699;28;20417;-59
2022/09/06 10:45:27;;;;;;;2.17;1.10;;;27.50;40.00;;;;;;5021829;28;20050;-57
2022/09/06 10:48:01;;;;;;;3.40;1.00;;;27.60;40.30;;;;;;5017896;28;20054;-62
2022/09/06 10:50:49;;;;;;;3.88;1.00;;;27.60;40.20;;;;;;5018354;28;20045;-61
2022/09/06 10:53:29;;;;;;;2.28;1.13;;;27.70;40.00;;;;;;4994786;28;20426;-62
2022/09/06 10:56:04;;;;;;;1.50;1.00;;;27.80;40.00;;;;;;5006418;28;20049;-62
2022/09/06 10:58:36;;;;;;;1.67;1.00;;;27.80;39.50;;;;;;5019180;28;20064;-62
2022/09/06 11:01:06;;;;;;;2.47;0.88;;;27.80;39.50;;;;;;5011897;28;20049;-58
2022/09/06 11:03:40;;;;;;;3.38;1.00;;;27.90;38.90;;;;;;5022375;28;20057;-60
2022/09/06 11:06:10;;;;;;;1.30;0.93;;;27.90;39.10;;;;;;5004343;28;20053;-62
2022/09/06 11:08:43;;;;;;;1.20;0.90;;;28.00;39.60;;;;;;5018907;28;20041;-61
2022/09/06 11:11:15;;;;;;;3.88;1.17;;;28.00;39.60;;;;;;5012271;28;20048;-58
2022/09/06 11:13:42;;;;;;;3.13;0.90;;;28.10;39.30;;;;;;5018276;28;20065;-57
2022/09/06 11:16:16;;;;;;;1.50;0.98;;;28.10;39.10;;;;;;5002253;28;20054;-61
2022/09/06 11:18:47;;;;;;;1.25;0.73;;;28.20;39.00;;;;;;5021771;28;20050;-61
2022/09/06 11:21:45;;;;;;;2.08;0.73;;;28.20;39.00;;;;;;5011333;28;20058;-62
2022/09/06 11:24:15;;;;;;;2.13;1.10;;;28.30;38.80;;;;;;5021149;28;20057;-62
2022/09/06 11:26:44;;;;;;;4.20;1.17;;;28.30;39.10;;;;;;5015667;28;20064;-60
2022/09/06 11:29:19;;;;;;;4.10;0.90;;;28.40;39.00;;;;;;5017640;28;20060;-61
2022/09/06 11:31:53;;;;;;;4.40;0.93;;;28.40;38.70;;;;;;5007618;28;20497;-61
2022/09/06 11:34:23;;;;;;;6.35;1.30;;;28.50;38.60;;;;;;5019491;28;20054;-63
2022/09/06 11:36:54;;;;;;;1.80;0.93;;;28.50;38.60;;;;;;5017407;28;20588;-62
2022/09/06 11:39:27;;;;;;;4.07;1.10;;;28.60;38.60;;;;;;5011586;28;20045;-59
2022/09/06 11:41:54;;;;;;;4.53;1.40;;;28.70;38.50;;;;;;5015923;28;20053;-62
2022/09/06 11:44:53;;;;;;;5.35;1.05;;;28.70;38.30;;;;;;5017965;28;20555;-62
2022/09/06 11:47:37;;;;;;;3.28;1.10;;;28.70;38.50;;;;;;5016120;28;20061;-58
2022/09/06 11:50:25;;;;;;;2.67;0.90;;;28.80;38.30;;;;;;5016688;28;20057;-62
2022/09/06 11:53:11;;;;;;;2.88;1.05;;;28.80;38.40;;;;;;5006465;28;20057;-61
2022/09/06 11:55:41;;;;;;;3.47;1.10;;;28.90;38.10;;;;;;5009745;28;20057;-61
2022/09/06 11:58:20;;;;;;;2.53;0.95;;;28.90;38.10;;;;;;5017222;28;20046;-61
2022/09/06 12:01:25;;;;;;;2.92;1.20;;;28.90;37.90;;;;;;5021069;28;20052;-62
2022/09/06 12:04:06;;;;;;;2.72;1.10;;;29.00;37.20;;;;;;5021838;28;20049;-58
2022/09/06 12:06:35;;;;;;;1.83;1.27;;;29.10;37.70;;;;;;5019553;28;20057;-58
2022/09/06 12:09:32;;;;;;;3.25;1.05;;;29.20;37.80;;;;;;5014977;28;20049;-61
2022/09/06 12:12:01;;;;;;;5.97;1.10;;;29.20;37.90;;;;;;5017602;28;20049;-62
2022/09/06 12:14:35;;;;;;;2.47;1.15;;;29.30;37.70;;;;;;5022335;28;20057;-63
2022/09/06 12:17:26;;;;;;;3.92;1.10;;;29.30;37.50;;;;;;5022367;28;20060;-58
2022/09/06 12:20:05;;;;;;;1.67;1.02;;;29.30;37.20;;;;;;5017601;28;20548;-58
2022/09/06 12:22:54;;;;;;;5.47;1.35;;;29.40;37.40;;;;;;5022403;28;20053;-59
2022/09/06 12:25:52;;;;;;;3.92;1.20;;;29.40;37.50;;;;;;5016533;28;20497;-62
2022/09/06 12:28:33;;;;;;;7.38;2.15;;;29.40;37.30;;;;;;5021150;28;20075;-60
2022/09/06 12:31:01;;;;;;;9.60;1.98;;;29.40;38.10;;;;;;5020108;28;20057;-62
2022/09/06 12:33:31;;;;;;;4.95;1.42;;;29.40;38.40;;;;;;5021549;28;20060;-62
2022/09/06 12:36:17;;;;;;;6.20;1.40;;;29.40;39.10;;;;;;5021622;28;20060;-61
2022/09/06 12:38:56;;;;;;;5.78;1.73;;;29.40;39.80;;;;;;5021287;28;20080;-62
2022/09/06 12:41:24;;;;;;;9.50;1.70;;;29.30;39.90;;;;;;5018335;28;20058;-61
2022/09/06 12:43:51;;;;;;;5.03;1.33;;;29.30;40.40;;;;;;5021121;28;20425;-62
2022/09/06 12:46:18;;;;;;;6.68;1.60;;;29.30;40.80;;;;;;5021754;28;20049;-58
2022/09/06 12:49:00;;;;;;;2.78;1.00;;;29.20;40.80;;;;;;5021419;28;20207;-60
2022/09/06 12:51:28;;;;;;;5.55;1.10;;;29.10;40.50;;;;;;5022247;28;20528;-61
2022/09/06 12:53:59;;;;;;;2.10;0.80;;;29.00;40.10;;;;;;5023988;28;20056;-58
2022/09/06 12:56:28;;;;;;;3.05;1.08;;;29.00;39.60;;;;;;5025066;28;20065;-60
2022/09/06 12:59:15;;;;;;;4.15;1.20;;;28.80;38.90;;;;;;5022855;28;20061;-60
2022/09/06 13:01:51;;;;;;;5.10;1.00;;;28.70;39.30;;;;;;5024496;28;20053;-61
2022/09/06 13:04:27;;;;;;;2.45;0.77;;;28.60;39.40;;;;;;5024183;28;20065;-61
2022/09/06 13:06:57;;;;;;;4.30;0.80;;;28.50;39.60;;;;;;5024153;28;20068;-62
2022/09/06 13:09:26;;;;;;;8.60;1.10;;;28.40;39.80;;;;;;5021512;28;20057;-60
2022/09/06 13:12:00;;;;;;;3.78;1.08;;;28.30;40.10;;;;;;5023282;28;20068;-59